METAR Data
IDs: Format: Raw Decoded Include TAF

Data at: 2105 UTC 24 Mar 2019

KGNC 242055Z AUTO 25015G20KT 10SM CLR 26/M05 A3007 RMK AO2 T02551049
KGNC 242035Z AUTO 26014G18KT 10SM CLR 26/M04 A3007 RMK AO2 T02571045
KGNC 242015Z AUTO 31003KT 10SM CLR 25/M03 A3008 RMK AO2 T02461034
KGNC 241955Z AUTO 20007KT 10SM CLR 25/M02 A3009 RMK AO2 T02451025
KGNC 241935Z AUTO 00000KT 10SM CLR 23/M03 A3010 RMK AO2 T02321032
KGNC 241915Z AUTO 06003KT 10SM CLR 23/M03 A3011 RMK AO2 T02261026
KGNC 241855Z AUTO 00000KT 10SM CLR 22/M02 A3012 RMK AO2 T02201025
KGNC 241835Z AUTO 00000KT 10SM CLR 21/M02 A3013 RMK AO2 T02141021
KGNC 241815Z AUTO 00000KT 10SM CLR 21/M02 A3014 RMK AO2 T02091017
KGNC 241755Z AUTO 02003KT 10SM CLR 20/M01 A3015 RMK AO2 T02021014 10205 20061
KGNC 241735Z AUTO 00000KT 10SM CLR 20/M01 A3015 RMK AO2 T02001014
KGNC 241715Z AUTO 09003KT 10SM CLR 19/M01 A3015 RMK AO2 T01881010
KGNC 241655Z AUTO 00000KT 10SM CLR 19/M01 A3015 RMK AO2 T01861009
KGNC 241635Z AUTO 06004KT 10SM CLR 18/M01 A3015 RMK AO2 T01771015
KGNC 241615Z AUTO 00000KT 10SM CLR 17/M02 A3014 RMK AO2 T01711018
KGNC 241555Z AUTO 35004KT 10SM CLR 16/M02 A3014 RMK AO2 T01631017
KGNC 241535Z AUTO 03004KT 10SM CLR 16/M02 A3014 RMK AO2 T01551017
KGNC 241515Z AUTO 01005KT 10SM CLR 15/M02 A3014 RMK AO2 T01461022
KGNC 241455Z AUTO 01005KT 10SM CLR 14/M03 A3013 RMK AO2 T01401030
KGNC 241435Z AUTO 35004KT 10SM CLR 13/M03 A3013 RMK AO2 T01321026
KGNC 241415Z AUTO 34009KT 10SM CLR 12/00 A3012 RMK AO2 T01151003
KGNC 241355Z AUTO 35012KT 10SM CLR 09/04 A3011 RMK AO2 T00930038
KGNC 241335Z AUTO 25009KT 10SM CLR 08/04 A3009 RMK AO2 T00840035
KGNC 241315Z AUTO 26008KT 10SM CLR 07/03 A3009 RMK AO2 T00740033
KGNC 241255Z AUTO 26007KT 10SM CLR 06/03 A3008 RMK AO2 T00610025
KGNC 241235Z AUTO 26007KT 10SM CLR 07/03 A3008 RMK AO2 T00660025
KGNC 241215Z AUTO 25008KT 10SM CLR 07/03 A3008 RMK AO2 T00700025
KGNC 241155Z AUTO 25006KT 10SM CLR 07/02 A3007 RMK AO2 T00650018 10121 20052
KGNC 241135Z AUTO 25005KT 10SM CLR 05/M02 A3007 RMK AO2 T00541021
KGNC 241115Z AUTO 28005KT 10SM CLR 07/M03 A3007 RMK AO2 T00651035
KGNC 241055Z AUTO 26005KT 10SM CLR 09/M04 A3007 RMK AO2 T00851037
KGNC 241035Z AUTO 23008KT 10SM CLR 09/M04 A3007 RMK AO2 T00901043
KGNC 241015Z AUTO 22007KT 10SM CLR 08/M04 A3007 RMK AO2 T00821045
KGNC 240955Z AUTO 22008KT 10SM CLR 09/M05 A3006 RMK AO2 T00891048
KGNC 240935Z AUTO 23008KT 10SM CLR 10/M05 A3006 RMK AO2 T00951050
KGNC 240915Z AUTO 23009KT 10SM CLR 08/M05 A3006 RMK AO2 T00821048
KGNC 240855Z AUTO 21007KT 10SM CLR 09/M05 A3006 RMK AO2 T00941055
KGNC 240835Z AUTO 27008KT 10SM CLR 10/M06 A3006 RMK AO2 T01001057
KGNC 240815Z AUTO 26009KT 10SM CLR 11/M06 A3006 RMK AO2 T01051060
KGNC 240755Z AUTO 25009KT 10SM CLR 12/M06 A3006 RMK AO2 T01171063
KGNC 240735Z AUTO 25010KT 10SM CLR 11/M06 A3006 RMK AO2 T01071061
KGNC 240715Z AUTO 25009KT 10SM CLR 11/M06 A3006 RMK AO2 T01091061
KGNC 240655Z AUTO 25009KT 10SM CLR 12/M06 A3006 RMK AO2 T01171060
KGNC 240635Z AUTO 26010KT 10SM CLR 12/M06 A3006 RMK AO2 T01151057
KGNC 240615Z AUTO 26009KT 10SM CLR 11/M06 A3006 RMK AO2 T01101056
KGNC 240555Z AUTO 26009KT 10SM CLR 11/M05 A3007 RMK AO2 T01081055 10216 20101 402280060
KGNC 240535Z AUTO 25009KT 10SM CLR 11/M05 A3007 RMK AO2 T01051052
KGNC 240515Z AUTO 24006KT 10SM CLR 11/M05 A3007 RMK AO2 T01051050
KGNC 240455Z AUTO 24007KT 10SM CLR 11/M05 A3007 RMK AO2 T01071052
KGNC 240435Z AUTO 23006KT 10SM CLR 13/M05 A3007 RMK AO2 T01291055
KGNC 240415Z AUTO 24006KT 10SM CLR 13/M05 A3007 RMK AO2 T01281048
KGNC 240355Z AUTO 24006KT 10SM CLR 12/M04 A3007 RMK AO2 T01211042
KGNC 240335Z AUTO 21004KT 10SM CLR 13/M04 A3006 RMK AO2 T01251037
KGNC 240315Z AUTO 00000KT 10SM CLR 12/M04 A3006 RMK AO2 T01161042
KGNC 240255Z AUTO 23004KT 10SM CLR 15/M05 A3005 RMK AO2 T01531052
KGNC 240235Z AUTO 24004KT 10SM CLR 16/M05 A3005 RMK AO2 T01571051
KGNC 240215Z AUTO 23005KT 10SM CLR 16/M05 A3003 RMK AO2 T01581046
KGNC 240155Z AUTO 26005KT 10SM CLR 14/M05 A3003 RMK AO2 T01411050
KGNC 240135Z AUTO 24004KT 10SM CLR 16/M06 A3002 RMK AO2 T01631058
KGNC 240115Z AUTO 21004KT 10SM CLR 18/M06 A3001 RMK AO2 T01811063
KGNC 240055Z AUTO 21003KT 10SM CLR 19/M07 A3001 RMK AO2 T01891066
KGNC 240035Z AUTO 23005KT 10SM CLR 20/M07 A3001 RMK AO2 T02021069
KGNC 240015Z AUTO 24009KT 10SM CLR 22/M06 A3001 RMK AO2 T02161065
KGNC 232355Z AUTO 23010KT 10SM CLR 22/M07 A3001 RMK AO2 T02161069 10228 20197
KGNC 232335Z AUTO 23007KT 10SM CLR 21/M07 A3001 RMK AO2 T02101075
KGNC 232315Z AUTO 23008KT 10SM CLR 22/M07 A3001 RMK AO2 T02211069
KGNC 232255Z AUTO 23009G15KT 10SM CLR 23/M06 A3001 RMK AO2 T02261065
KGNC 232235Z AUTO 21007KT 10SM CLR 22/M07 A3002 RMK AO2 T02181066
KGNC 232215Z AUTO 27011KT 10SM CLR 22/M07 A3003 RMK AO2 T02201069
KGNC 232155Z AUTO 26010G18KT 10SM CLR 22/M06 A3002 RMK AO2 T02241061
KGNC 232135Z AUTO 25011G18KT 10SM CLR 22/M06 A3003 RMK AO2 T02231058
KGNC 232115Z AUTO 23016KT 10SM CLR 23/M05 A3003 RMK AO2 T02281048
KGNC 232055Z AUTO 27013KT 10SM CLR 23/M05 A3003 RMK AO2 T02251052
KGNC 232035Z AUTO 23007G23KT 10SM CLR 22/M04 A3005 RMK AO2 T02221045
KGNC 232015Z AUTO 24015G18KT 10SM CLR 22/M05 A3005 RMK AO2 T02201050
KGNC 231955Z AUTO 25014G21KT 10SM CLR 21/M05 A3006 RMK AO2 T02141054
KGNC 231935Z AUTO 25012G19KT 10SM CLR 22/M04 A3006 RMK AO2 T02181037
KGNC 231915Z AUTO 25011G20KT 10SM CLR 21/M04 A3007 RMK AO2 T02121039
KGNC 231855Z AUTO 26015G20KT 10SM CLR 21/M03 A3008 RMK AO2 T02061032
KGNC 231835Z AUTO 26012G16KT 10SM CLR 20/M03 A3008 RMK AO2 T02021032
KGNC 231815Z AUTO 28013G18KT 10SM CLR 20/M03 A3009 RMK AO2 T02011028
KGNC 231755Z AUTO 28010G14KT 10SM CLR 20/M02 A3010 RMK AO2 T02011019 10201 20060
KGNC 231735Z AUTO 28011G16KT 10SM CLR 19/M02 A3010 RMK AO2 T01881021
KGNC 231715Z AUTO 31011G17KT 10SM CLR 18/M02 A3011 RMK AO2 T01811023
KGNC 231655Z AUTO 30007G15KT 10SM CLR 17/M02 A3011 RMK AO2 T01741024
KGNC 231635Z AUTO 30009KT 10SM CLR 17/M01 A3011 RMK AO2 T01691014
KGNC 231615Z AUTO 31008G16KT 10SM CLR 16/M02 A3011 RMK AO2 T01621021
KGNC 231555Z AUTO 30007KT 10SM CLR 16/M01 A3012 RMK AO2 T01551007
KGNC 231535Z AUTO 32006KT 10SM CLR 15/01 A3012 RMK AO2 T01490010
KGNC 231515Z AUTO 32005KT 10SM CLR 14/02 A3012 RMK AO2 T01370021
KGNC 231455Z AUTO 30005KT 10SM CLR 11/05 A3011 RMK AO2 T01140047
KGNC 231435Z AUTO 30005KT 10SM CLR 10/06 A3011 RMK AO2 T00950055
KGNC 231415Z AUTO 29005KT 10SM CLR 08/08 A3011 RMK AO2 T00790079
KGNC 231355Z AUTO 28006KT 10SM CLR 07/07 A3011 RMK AO2 T00670067
KGNC 231335Z AUTO 28006KT 3SM BR SCT002 07/07 A3010 RMK AO2 T00660066
KGNC 231315Z AUTO 28006KT 1/4SM FG OVC002 06/06 A3009 RMK AO2 T00600060
KGNC 231255Z AUTO 28006KT 1/2SM FG OVC002 07/07 A3009 RMK AO2 T00660066
KGNC 231235Z AUTO 28005KT 1/4SM FG OVC002 08/08 A3007 RMK AO2 T00750075
KGNC 231215Z AUTO 28006KT 1/4SM FG OVC002 08/08 A3007 RMK AO2 T00800080
KGNC 231155Z AUTO 28008KT 2SM BR BKN002 09/09 A3006 RMK AO2 T00850085 10113 20082
KGNC 231135Z AUTO 26005KT 3SM BR CLR 08/08 A3006 RMK AO2 T00840084
KGNC 231115Z AUTO 27007KT 4SM BR CLR 09/09 A3005 RMK AO2 T00920092
KGNC 231055Z AUTO 27007KT 5SM BR SCT007 10/10 A3004 RMK AO2 T01010101
KGNC 231035Z AUTO 27008KT 7SM BKN007 11/11 A3004 RMK AO2 T01080108
KGNC 231015Z AUTO 27011G15KT 7SM BKN005 11/11 A3004 RMK AO2 T01120112
KGNC 230955Z AUTO 26011G15KT 5SM BR OVC005 11/11 A3003 RMK AO2 T01110111
KGNC 230935Z AUTO 29007KT 7SM OVC005 11/11 A3003 RMK AO2 T01050105
KGNC 230915Z AUTO 26006KT 7SM OVC005 10/10 A3004 RMK AO2 T01020102